sensor_id;sensor_type;location;lat;lon;timestamp;pressure;altitude;pressure_sealevel;temperature;humidity
56992;BME280;42885;49.754;18.636;2024-02-14T00:02:32;98803.44;;;6.88;100.00
56992;BME280;42885;49.754;18.636;2024-02-14T00:05:22;98804.52;;;6.82;100.00
56992;BME280;42885;49.754;18.636;2024-02-14T00:08:11;98802.64;;;6.74;100.00
56992;BME280;42885;49.754;18.636;2024-02-14T00:11:01;98799.09;;;6.88;100.00
56992;BME280;42885;49.754;18.636;2024-02-14T00:13:51;98799.44;;;7.03;100.00
56992;BME280;42885;49.754;18.636;2024-02-14T00:16:40;98802.42;;;6.80;100.00
56992;BME280;42885;49.754;18.636;2024-02-14T00:19:29;98799.69;;;6.71;100.00
56992;BME280;42885;49.754;18.636;2024-02-14T00:22:19;98801.08;;;6.44;100.00
56992;BME280;42885;49.754;18.636;2024-02-14T00:25:08;98799.41;;;6.55;100.00
56992;BME280;42885;49.754;18.636;2024-02-14T00:27:58;98800.84;;;6.39;100.00
56992;BME280;42885;49.754;18.636;2024-02-14T00:30:48;98802.30;;;6.47;100.00
56992;BME280;42885;49.754;18.636;2024-02-14T00:33:37;98809.44;;;6.41;100.00
56992;BME280;42885;49.754;18.636;2024-02-14T00:36:25;98816.30;;;6.30;100.00
56992;BME280;42885;49.754;18.636;2024-02-14T00:39:15;98819.13;;;6.24;100.00
56992;BME280;42885;49.754;18.636;2024-02-14T00:42:04;98818.42;;;6.32;100.00
56992;BME280;42885;49.754;18.636;2024-02-14T00:44:53;98820.19;;;6.43;100.00
56992;BME280;42885;49.754;18.636;2024-02-14T00:47:42;98815.50;;;6.41;100.00
56992;BME280;42885;49.754;18.636;2024-02-14T00:50:31;98817.13;;;6.32;100.00
56992;BME280;42885;49.754;18.636;2024-02-14T00:53:22;98815.78;;;6.20;100.00
56992;BME280;42885;49.754;18.636;2024-02-14T00:56:12;98812.16;;;6.38;100.00
56992;BME280;42885;49.754;18.636;2024-02-14T00:59:01;98812.32;;;6.19;100.00
56992;BME280;42885;49.754;18.636;2024-02-14T01:01:50;98805.59;;;6.14;100.00
56992;BME280;42885;49.754;18.636;2024-02-14T01:04:39;98808.70;;;6.12;100.00
56992;BME280;42885;49.754;18.636;2024-02-14T01:07:29;98802.44;;;6.04;100.00
56992;BME280;42885;49.754;18.636;2024-02-14T01:10:18;98803.62;;;6.20;100.00
56992;BME280;42885;49.754;18.636;2024-02-14T01:13:07;98798.18;;;5.88;100.00
56992;BME280;42885;49.754;18.636;2024-02-14T01:15:57;98803.56;;;5.82;100.00
56992;BME280;42885;49.754;18.636;2024-02-14T01:18:46;98802.59;;;5.86;100.00
56992;BME280;42885;49.754;18.636;2024-02-14T01:21:35;98799.08;;;5.87;100.00
56992;BME280;42885;49.754;18.636;2024-02-14T01:24:24;98796.84;;;5.89;100.00
56992;BME280;42885;49.754;18.636;2024-02-14T01:27:17;98797.92;;;5.69;100.00
56992;BME280;42885;49.754;18.636;2024-02-14T01:30:07;98791.08;;;5.53;100.00
56992;BME280;42885;49.754;18.636;2024-02-14T01:32:56;98792.23;;;5.42;100.00
56992;BME280;42885;49.754;18.636;2024-02-14T01:35:45;98787.80;;;5.32;100.00
56992;BME280;42885;49.754;18.636;2024-02-14T01:38:34;98793.25;;;5.38;100.00
56992;BME280;42885;49.754;18.636;2024-02-14T01:41:23;98796.64;;;5.40;100.00
56992;BME280;42885;49.754;18.636;2024-02-14T01:44:12;98794.94;;;5.39;100.00
56992;BME280;42885;49.754;18.636;2024-02-14T01:47:01;98795.92;;;5.35;100.00
56992;BME280;42885;49.754;18.636;2024-02-14T01:49:51;98792.23;;;5.29;100.00
56992;BME280;42885;49.754;18.636;2024-02-14T01:52:41;98782.33;;;5.42;100.00
56992;BME280;42885;49.754;18.636;2024-02-14T01:55:31;98783.83;;;5.20;100.00
56992;BME280;42885;49.754;18.636;2024-02-14T01:58:23;98771.76;;;5.19;100.00
56992;BME280;42885;49.754;18.636;2024-02-14T02:01:12;98785.80;;;4.67;100.00
56992;BME280;42885;49.754;18.636;2024-02-14T02:04:00;98783.84;;;4.75;100.00
56992;BME280;42885;49.754;18.636;2024-02-14T02:06:50;98786.06;;;4.73;100.00
56992;BME280;42885;49.754;18.636;2024-02-14T02:09:40;98781.27;;;4.59;100.00
56992;BME280;42885;49.754;18.636;2024-02-14T02:12:31;98781.81;;;4.70;100.00
56992;BME280;42885;49.754;18.636;2024-02-14T02:15:22;98782.36;;;4.50;100.00
56992;BME280;42885;49.754;18.636;2024-02-14T02:18:11;98788.91;;;4.32;100.00
56992;BME280;42885;49.754;18.636;2024-02-14T02:21:01;98792.45;;;4.44;100.00
56992;BME280;42885;49.754;18.636;2024-02-14T02:23:51;98795.91;;;4.11;100.00
56992;BME280;42885;49.754;18.636;2024-02-14T02:26:40;98798.56;;;4.25;100.00
56992;BME280;42885;49.754;18.636;2024-02-14T02:29:29;98801.77;;;4.18;100.00
56992;BME280;42885;49.754;18.636;2024-02-14T02:32:20;98800.23;;;4.27;100.00
56992;BME280;42885;49.754;18.636;2024-02-14T02:35:10;98800.50;;;4.17;100.00
56992;BME280;42885;49.754;18.636;2024-02-14T02:37:59;98803.75;;;4.25;100.00
56992;BME280;42885;49.754;18.636;2024-02-14T02:40:49;98803.89;;;4.19;100.00
56992;BME280;42885;49.754;18.636;2024-02-14T02:43:39;98805.66;;;4.18;100.00
56992;BME280;42885;49.754;18.636;2024-02-14T02:46:28;98818.47;;;4.06;100.00
56992;BME280;42885;49.754;18.636;2024-02-14T02:49:17;98818.47;;;4.06;100.00
56992;BME280;42885;49.754;18.636;2024-02-14T02:52:07;98816.95;;;3.97;100.00
56992;BME280;42885;49.754;18.636;2024-02-14T02:54:58;98819.86;;;4.03;100.00
56992;BME280;42885;49.754;18.636;2024-02-14T02:57:49;98813.27;;;3.90;100.00
56992;BME280;42885;49.754;18.636;2024-02-14T03:00:38;98817.55;;;4.09;100.00
56992;BME280;42885;49.754;18.636;2024-02-14T03:03:27;98820.55;;;4.10;100.00
56992;BME280;42885;49.754;18.636;2024-02-14T03:06:16;98821.95;;;4.05;100.00
56992;BME280;42885;49.754;18.636;2024-02-14T03:09:05;98828.58;;;3.63;100.00
56992;BME280;42885;49.754;18.636;2024-02-14T03:11:55;98821.75;;;3.58;100.00
56992;BME280;42885;49.754;18.636;2024-02-14T03:14:45;98822.78;;;3.51;100.00
56992;BME280;42885;49.754;18.636;2024-02-14T03:17:34;98822.43;;;3.49;100.00
56992;BME280;42885;49.754;18.636;2024-02-14T03:20:24;98824.17;;;3.47;100.00
56992;BME280;42885;49.754;18.636;2024-02-14T03:23:13;98826.47;;;3.41;100.00
56992;BME280;42885;49.754;18.636;2024-02-14T03:26:03;98837.27;;;3.40;100.00
56992;BME280;42885;49.754;18.636;2024-02-14T03:28:53;98834.58;;;3.45;100.00
56992;BME280;42885;49.754;18.636;2024-02-14T03:31:42;98837.88;;;3.32;100.00
56992;BME280;42885;49.754;18.636;2024-02-14T03:34:32;98840.16;;;3.46;100.00
56992;BME280;42885;49.754;18.636;2024-02-14T03:37:23;98846.28;;;3.42;100.00
56992;BME280;42885;49.754;18.636;2024-02-14T03:40:12;98844.52;;;3.64;100.00
56992;BME280;42885;49.754;18.636;2024-02-14T03:43:01;98848.88;;;3.62;100.00
56992;BME280;42885;49.754;18.636;2024-02-14T03:45:50;98851.01;;;3.62;100.00
56992;BME280;42885;49.754;18.636;2024-02-14T03:48:40;98847.75;;;3.34;100.00
56992;BME280;42885;49.754;18.636;2024-02-14T03:51:29;98851.22;;;3.53;100.00
56992;BME280;42885;49.754;18.636;2024-02-14T03:54:19;98841.73;;;3.53;100.00
56992;BME280;42885;49.754;18.636;2024-02-14T03:57:09;98847.92;;;3.46;100.00
56992;BME280;42885;49.754;18.636;2024-02-14T04:00:01;98846.00;;;3.35;100.00
56992;BME280;42885;49.754;18.636;2024-02-14T04:02:52;98850.05;;;3.27;100.00
56992;BME280;42885;49.754;18.636;2024-02-14T04:05:43;98852.62;;;3.28;100.00
56992;BME280;42885;49.754;18.636;2024-02-14T04:08:33;98852.11;;;3.32;100.00
56992;BME280;42885;49.754;18.636;2024-02-14T04:11:24;98859.69;;;3.20;100.00
56992;BME280;42885;49.754;18.636;2024-02-14T04:14:13;98856.75;;;3.36;100.00
56992;BME280;42885;49.754;18.636;2024-02-14T04:17:03;98850.87;;;3.29;100.00
56992;BME280;42885;49.754;18.636;2024-02-14T04:19:53;98857.96;;;3.19;100.00
56992;BME280;42885;49.754;18.636;2024-02-14T04:22:42;98859.59;;;3.25;100.00
56992;BME280;42885;49.754;18.636;2024-02-14T04:25:32;98857.89;;;3.24;100.00
56992;BME280;42885;49.754;18.636;2024-02-14T04:28:21;98859.69;;;3.20;100.00
56992;BME280;42885;49.754;18.636;2024-02-14T04:31:11;98860.62;;;2.95;100.00
56992;BME280;42885;49.754;18.636;2024-02-14T04:34:01;98864.33;;;3.02;100.00
56992;BME280;42885;49.754;18.636;2024-02-14T04:36:49;98859.70;;;3.40;100.00
56992;BME280;42885;49.754;18.636;2024-02-14T04:39:40;98862.77;;;3.57;100.00
56992;BME280;42885;49.754;18.636;2024-02-14T04:42:29;98867.94;;;3.57;100.00
56992;BME280;42885;49.754;18.636;2024-02-14T04:45:19;98864.73;;;3.66;100.00
56992;BME280;42885;49.754;18.636;2024-02-14T04:48:09;98865.41;;;3.74;100.00
56992;BME280;42885;49.754;18.636;2024-02-14T04:50:58;98865.80;;;3.36;100.00
56992;BME280;42885;49.754;18.636;2024-02-14T04:53:47;98864.56;;;3.34;100.00
56992;BME280;42885;49.754;18.636;2024-02-14T04:56:37;98860.97;;;3.41;100.00
56992;BME280;42885;49.754;18.636;2024-02-14T04:59:26;98867.33;;;3.46;100.00
56992;BME280;42885;49.754;18.636;2024-02-14T05:02:15;98867.96;;;3.56;100.00
56992;BME280;42885;49.754;18.636;2024-02-14T05:05:05;98872.96;;;3.65;100.00
56992;BME280;42885;49.754;18.636;2024-02-14T05:07:56;98872.39;;;3.70;100.00
56992;BME280;42885;49.754;18.636;2024-02-14T05:10:46;98870.72;;;3.68;100.00
56992;BME280;42885;49.754;18.636;2024-02-14T05:13:35;98870.53;;;3.57;100.00
56992;BME280;42885;49.754;18.636;2024-02-14T05:16:26;98875.41;;;3.52;100.00
56992;BME280;42885;49.754;18.636;2024-02-14T05:19:16;98875.50;;;3.47;100.00
56992;BME280;42885;49.754;18.636;2024-02-14T05:22:05;98876.52;;;3.60;100.00
56992;BME280;42885;49.754;18.636;2024-02-14T05:24:54;98872.91;;;3.67;100.00
56992;BME280;42885;49.754;18.636;2024-02-14T05:27:43;98875.47;;;3.68;100.00
56992;BME280;42885;49.754;18.636;2024-02-14T05:30:34;98875.09;;;3.66;100.00
56992;BME280;42885;49.754;18.636;2024-02-14T05:33:24;98873.77;;;3.67;100.00
56992;BME280;42885;49.754;18.636;2024-02-14T05:36:14;98864.44;;;3.60;100.00
56992;BME280;42885;49.754;18.636;2024-02-14T05:39:03;98868.62;;;3.46;100.00
56992;BME280;42885;49.754;18.636;2024-02-14T05:41:54;98867.74;;;3.47;100.00
56992;BME280;42885;49.754;18.636;2024-02-14T05:44:44;98869.44;;;3.48;100.00
56992;BME280;42885;49.754;18.636;2024-02-14T05:47:33;98865.66;;;3.43;100.00
56992;BME280;42885;49.754;18.636;2024-02-14T05:50:22;98869.97;;;3.43;100.00
56992;BME280;42885;49.754;18.636;2024-02-14T05:53:12;98871.44;;;3.35;100.00
56992;BME280;42885;49.754;18.636;2024-02-14T05:56:00;98868.39;;;3.36;100.00
56992;BME280;42885;49.754;18.636;2024-02-14T05:58:50;98878.61;;;3.22;100.00
56992;BME280;42885;49.754;18.636;2024-02-14T06:01:39;98880.28;;;3.25;100.00
56992;BME280;42885;49.754;18.636;2024-02-14T06:04:28;98880.72;;;3.24;100.00
56992;BME280;42885;49.754;18.636;2024-02-14T06:07:18;98887.39;;;3.35;100.00
56992;BME280;42885;49.754;18.636;2024-02-14T06:10:08;98887.39;;;3.35;100.00
56992;BME280;42885;49.754;18.636;2024-02-14T06:12:57;98896.73;;;2.99;100.00
56992;BME280;42885;49.754;18.636;2024-02-14T06:15:48;98895.20;;;2.89;100.00
56992;BME280;42885;49.754;18.636;2024-02-14T06:18:37;98893.47;;;3.11;100.00
56992;BME280;42885;49.754;18.636;2024-02-14T06:21:27;98902.91;;;3.13;100.00
56992;BME280;42885;49.754;18.636;2024-02-14T06:24:17;98902.50;;;2.89;100.00
56992;BME280;42885;49.754;18.636;2024-02-14T06:27:07;98905.73;;;2.80;100.00
56992;BME280;42885;49.754;18.636;2024-02-14T06:29:56;98909.93;;;3.08;100.00
56992;BME280;42885;49.754;18.636;2024-02-14T06:32:45;98910.34;;;3.30;100.00
56992;BME280;42885;49.754;18.636;2024-02-14T06:35:34;98905.20;;;3.06;100.00
56992;BME280;42885;49.754;18.636;2024-02-14T06:38:24;98905.24;;;3.49;100.00
56992;BME280;42885;49.754;18.636;2024-02-14T06:41:14;98907.16;;;3.39;100.00
56992;BME280;42885;49.754;18.636;2024-02-14T06:44:06;98910.92;;;3.45;100.00
56992;BME280;42885;49.754;18.636;2024-02-14T06:46:56;98910.67;;;3.56;100.00
56992;BME280;42885;49.754;18.636;2024-02-14T06:49:44;98893.59;;;3.68;100.00
56992;BME280;42885;49.754;18.636;2024-02-14T06:52:34;98893.59;;;3.68;100.00
56992;BME280;42885;49.754;18.636;2024-02-14T06:55:24;98890.95;;;3.90;100.00
56992;BME280;42885;49.754;18.636;2024-02-14T06:58:13;98894.91;;;4.05;100.00
56992;BME280;42885;49.754;18.636;2024-02-14T07:01:02;98901.39;;;4.05;100.00
56992;BME280;42885;49.754;18.636;2024-02-14T07:03:51;98898.20;;;4.48;100.00
56992;BME280;42885;49.754;18.636;2024-02-14T07:06:41;98903.30;;;4.84;100.00
56992;BME280;42885;49.754;18.636;2024-02-14T07:09:31;98903.00;;;5.27;100.00
56992;BME280;42885;49.754;18.636;2024-02-14T07:12:21;98903.75;;;5.90;99.16
56992;BME280;42885;49.754;18.636;2024-02-14T07:15:10;98906.56;;;5.69;100.00
56992;BME280;42885;49.754;18.636;2024-02-14T07:17:59;98905.41;;;5.78;99.07
56992;BME280;42885;49.754;18.636;2024-02-14T07:20:49;98902.20;;;5.98;97.30
56992;BME280;42885;49.754;18.636;2024-02-14T07:23:39;98895.95;;;5.62;97.23
56992;BME280;42885;49.754;18.636;2024-02-14T07:26:27;98899.86;;;5.75;97.68
56992;BME280;42885;49.754;18.636;2024-02-14T07:29:16;98898.27;;;5.71;97.55
56992;BME280;42885;49.754;18.636;2024-02-14T07:32:06;98893.90;;;6.00;94.75
56992;BME280;42885;49.754;18.636;2024-02-14T07:34:55;98887.05;;;6.13;92.80
56992;BME280;42885;49.754;18.636;2024-02-14T07:37:44;98885.11;;;6.58;87.15
56992;BME280;42885;49.754;18.636;2024-02-14T07:40:34;98891.17;;;6.96;84.12
56992;BME280;42885;49.754;18.636;2024-02-14T07:43:24;98889.58;;;6.80;82.49
56992;BME280;42885;49.754;18.636;2024-02-14T07:46:20;98887.33;;;6.83;80.93
56992;BME280;42885;49.754;18.636;2024-02-14T07:49:10;98888.54;;;7.10;78.56
56992;BME280;42885;49.754;18.636;2024-02-14T07:52:00;98890.63;;;7.12;77.33
56992;BME280;42885;49.754;18.636;2024-02-14T07:54:53;98895.00;;;7.11;78.58
56992;BME280;42885;49.754;18.636;2024-02-14T07:57:42;98893.97;;;7.27;76.77
56992;BME280;42885;49.754;18.636;2024-02-14T08:00:33;98896.48;;;7.19;76.13
56992;BME280;42885;49.754;18.636;2024-02-14T08:03:22;98895.09;;;7.56;74.85
56992;BME280;42885;49.754;18.636;2024-02-14T08:06:13;98899.69;;;7.61;74.01
56992;BME280;42885;49.754;18.636;2024-02-14T08:09:02;98887.63;;;7.58;74.73
56992;BME280;42885;49.754;18.636;2024-02-14T08:11:53;98895.65;;;7.64;75.97
56992;BME280;42885;49.754;18.636;2024-02-14T08:14:42;98889.69;;;7.73;75.26
56992;BME280;42885;49.754;18.636;2024-02-14T08:17:31;98884.70;;;7.66;73.61
56992;BME280;42885;49.754;18.636;2024-02-14T08:20:22;98885.44;;;7.70;73.61
56992;BME280;42885;49.754;18.636;2024-02-14T08:23:11;98887.50;;;7.84;72.63
56992;BME280;42885;49.754;18.636;2024-02-14T08:26:00;98890.03;;;7.97;72.50
56992;BME280;42885;49.754;18.636;2024-02-14T08:28:50;98892.28;;;8.17;70.40
56992;BME280;42885;49.754;18.636;2024-02-14T08:31:39;98892.99;;;8.43;68.86
56992;BME280;42885;49.754;18.636;2024-02-14T08:34:28;98900.38;;;8.54;67.19
56992;BME280;42885;49.754;18.636;2024-02-14T08:37:17;98897.20;;;8.78;66.56
56992;BME280;42885;49.754;18.636;2024-02-14T08:40:07;98903.69;;;8.99;65.65
56992;BME280;42885;49.754;18.636;2024-02-14T08:42:57;98902.09;;;8.97;65.70
56992;BME280;42885;49.754;18.636;2024-02-14T08:45:47;98899.53;;;8.95;63.78
56992;BME280;42885;49.754;18.636;2024-02-14T08:48:35;98889.09;;;8.95;62.77
56992;BME280;42885;49.754;18.636;2024-02-14T08:51:26;98893.78;;;8.97;63.53
56992;BME280;42885;49.754;18.636;2024-02-14T08:54:15;98890.01;;;8.94;62.85
56992;BME280;42885;49.754;18.636;2024-02-14T08:57:05;98889.70;;;8.81;63.29
56992;BME280;42885;49.754;18.636;2024-02-14T08:59:54;98895.33;;;9.12;61.71
56992;BME280;42885;49.754;18.636;2024-02-14T09:02:46;98893.66;;;8.90;62.20
56992;BME280;42885;49.754;18.636;2024-02-14T09:05:36;98895.48;;;8.88;62.61
56992;BME280;42885;49.754;18.636;2024-02-14T09:08:26;98895.00;;;9.39;61.78
56992;BME280;42885;49.754;18.636;2024-02-14T09:11:15;98895.06;;;9.56;60.55
56992;BME280;42885;49.754;18.636;2024-02-14T09:14:05;98878.84;;;9.58;58.71
56992;BME280;42885;49.754;18.636;2024-02-14T09:16:55;98881.33;;;9.81;58.09
56992;BME280;42885;49.754;18.636;2024-02-14T09:19:44;98874.66;;;9.93;55.61
56992;BME280;42885;49.754;18.636;2024-02-14T09:22:35;98870.67;;;9.75;55.75
56992;BME280;42885;49.754;18.636;2024-02-14T09:25:25;98869.25;;;9.87;56.48
56992;BME280;42885;49.754;18.636;2024-02-14T09:28:19;98865.98;;;10.01;56.04
56992;BME280;42885;49.754;18.636;2024-02-14T09:31:04;98874.88;;;9.97;54.98
56992;BME280;42885;49.754;18.636;2024-02-14T09:33:53;98872.08;;;10.10;55.13
56992;BME280;42885;49.754;18.636;2024-02-14T09:36:44;98873.14;;;10.24;53.32
56992;BME280;42885;49.754;18.636;2024-02-14T09:39:33;98873.42;;;10.45;52.54
56992;BME280;42885;49.754;18.636;2024-02-14T09:42:38;98872.95;;;10.55;51.94
56992;BME280;42885;49.754;18.636;2024-02-14T09:45:19;98876.89;;;10.64;51.76
56992;BME280;42885;49.754;18.636;2024-02-14T09:48:08;98867.94;;;10.68;51.23
56992;BME280;42885;49.754;18.636;2024-02-14T09:51:00;98870.99;;;10.32;51.12
56992;BME280;42885;49.754;18.636;2024-02-14T09:53:50;98875.17;;;10.71;51.27
56992;BME280;42885;49.754;18.636;2024-02-14T09:56:41;98869.70;;;10.76;50.22
56992;BME280;42885;49.754;18.636;2024-02-14T09:59:30;98866.02;;;10.71;50.54
56992;BME280;42885;49.754;18.636;2024-02-14T10:02:21;98870.59;;;11.26;49.29
56992;BME280;42885;49.754;18.636;2024-02-14T10:05:10;98871.16;;;11.40;48.53
56992;BME280;42885;49.754;18.636;2024-02-14T10:08:00;98871.83;;;11.44;48.47
56992;BME280;42885;49.754;18.636;2024-02-14T10:10:50;98861.91;;;11.97;48.78
56992;BME280;42885;49.754;18.636;2024-02-14T10:13:39;98858.48;;;12.28;48.47
56992;BME280;42885;49.754;18.636;2024-02-14T10:16:28;98857.14;;;12.13;47.95
56992;BME280;42885;49.754;18.636;2024-02-14T10:19:18;98858.88;;;11.73;47.76
56992;BME280;42885;49.754;18.636;2024-02-14T10:22:07;98850.98;;;11.50;48.83
56992;BME280;42885;49.754;18.636;2024-02-14T10:24:57;98848.39;;;11.73;48.62
56992;BME280;42885;49.754;18.636;2024-02-14T10:27:46;98846.53;;;12.15;47.57
56992;BME280;42885;49.754;18.636;2024-02-14T10:30:37;98841.45;;;12.04;47.99
56992;BME280;42885;49.754;18.636;2024-02-14T10:33:31;98839.50;;;12.08;47.69
56992;BME280;42885;49.754;18.636;2024-02-14T10:36:21;98835.58;;;11.99;47.92
56992;BME280;42885;49.754;18.636;2024-02-14T10:39:12;98834.57;;;12.18;47.48
56992;BME280;42885;49.754;18.636;2024-02-14T10:42:03;98829.61;;;12.20;47.47
56992;BME280;42885;49.754;18.636;2024-02-14T10:44:52;98828.53;;;11.92;47.80
56992;BME280;42885;49.754;18.636;2024-02-14T10:47:43;98827.13;;;12.10;47.71
56992;BME280;42885;49.754;18.636;2024-02-14T10:50:35;98833.50;;;12.44;48.02
56992;BME280;42885;49.754;18.636;2024-02-14T10:53:26;98824.72;;;13.17;46.51
56992;BME280;42885;49.754;18.636;2024-02-14T10:56:18;98828.55;;;12.68;46.56
56992;BME280;42885;49.754;18.636;2024-02-14T10:59:10;98830.89;;;12.65;47.02
56992;BME280;42885;49.754;18.636;2024-02-14T11:01:59;98827.30;;;13.32;48.37
56992;BME280;42885;49.754;18.636;2024-02-14T11:04:48;98819.63;;;13.14;46.64
56992;BME280;42885;49.754;18.636;2024-02-14T11:07:44;98820.13;;;12.92;45.73
56992;BME280;42885;49.754;18.636;2024-02-14T11:10:37;98822.28;;;12.78;45.95
56992;BME280;42885;49.754;18.636;2024-02-14T11:13:29;98814.03;;;12.70;46.26
56992;BME280;42885;49.754;18.636;2024-02-14T11:16:24;98817.78;;;12.80;45.68
56992;BME280;42885;49.754;18.636;2024-02-14T11:19:16;98817.30;;;12.66;43.95
56992;BME280;42885;49.754;18.636;2024-02-14T11:22:11;98806.78;;;13.10;42.88
56992;BME280;42885;49.754;18.636;2024-02-14T11:25:08;98806.38;;;13.72;41.75
56992;BME280;42885;49.754;18.636;2024-02-14T11:27:59;98793.94;;;13.82;41.69
56992;BME280;42885;49.754;18.636;2024-02-14T11:30:50;98790.30;;;13.97;41.78
56992;BME280;42885;49.754;18.636;2024-02-14T11:33:40;98784.16;;;14.24;40.93
56992;BME280;42885;49.754;18.636;2024-02-14T11:36:32;98790.27;;;13.22;41.89
56992;BME280;42885;49.754;18.636;2024-02-14T11:39:23;98780.01;;;13.67;41.21
56992;BME280;42885;49.754;18.636;2024-02-14T11:42:12;98787.94;;;12.96;42.82
56992;BME280;42885;49.754;18.636;2024-02-14T11:45:02;98785.97;;;13.06;42.94
56992;BME280;42885;49.754;18.636;2024-02-14T11:47:52;98782.69;;;12.81;43.02
56992;BME280;42885;49.754;18.636;2024-02-14T11:50:42;98787.86;;;13.39;43.45
56992;BME280;42885;49.754;18.636;2024-02-14T11:53:32;98780.25;;;13.42;43.27
56992;BME280;42885;49.754;18.636;2024-02-14T11:56:24;98774.42;;;13.09;43.49
56992;BME280;42885;49.754;18.636;2024-02-14T11:59:14;98776.39;;;13.13;43.46
56992;BME280;42885;49.754;18.636;2024-02-14T12:02:05;98764.08;;;13.62;42.80
56992;BME280;42885;49.754;18.636;2024-02-14T12:04:55;98766.87;;;14.20;41.81
56992;BME280;42885;49.754;18.636;2024-02-14T12:07:45;98762.45;;;14.72;40.96
56992;BME280;42885;49.754;18.636;2024-02-14T12:10:36;98754.97;;;15.30;39.77
56992;BME280;42885;49.754;18.636;2024-02-14T12:13:28;98755.34;;;15.85;39.19
56992;BME280;42885;49.754;18.636;2024-02-14T12:16:23;98745.55;;;16.40;38.04
56992;BME280;42885;49.754;18.636;2024-02-14T12:19:16;98751.47;;;16.02;39.07
56992;BME280;42885;49.754;18.636;2024-02-14T12:22:10;98748.06;;;15.40;38.51
56992;BME280;42885;49.754;18.636;2024-02-14T12:25:03;98747.94;;;16.55;37.52
56992;BME280;42885;49.754;18.636;2024-02-14T12:27:56;98738.88;;;18.39;35.65
56992;BME280;42885;49.754;18.636;2024-02-14T12:30:50;98731.17;;;19.34;34.32
56992;BME280;42885;49.754;18.636;2024-02-14T12:33:45;98731.94;;;19.05;33.98
56992;BME280;42885;49.754;18.636;2024-02-14T12:36:34;98738.67;;;18.78;35.37
56992;BME280;42885;49.754;18.636;2024-02-14T12:39:23;98739.12;;;18.52;34.98
56992;BME280;42885;49.754;18.636;2024-02-14T12:42:15;98729.16;;;19.51;33.91
56992;BME280;42885;49.754;18.636;2024-02-14T12:45:06;98728.64;;;19.32;33.10
56992;BME280;42885;49.754;18.636;2024-02-14T12:47:55;98723.60;;;20.18;33.04
56992;BME280;42885;49.754;18.636;2024-02-14T12:50:45;98714.47;;;19.87;33.03
56992;BME280;42885;49.754;18.636;2024-02-14T12:53:36;98704.00;;;21.77;31.40
56992;BME280;42885;49.754;18.636;2024-02-14T12:56:26;98711.33;;;20.31;31.79
56992;BME280;42885;49.754;18.636;2024-02-14T12:59:17;98724.52;;;18.98;33.27
56992;BME280;42885;49.754;18.636;2024-02-14T13:02:07;98716.41;;;20.38;31.94
56992;BME280;42885;49.754;18.636;2024-02-14T13:04:56;98716.63;;;19.38;33.27
56992;BME280;42885;49.754;18.636;2024-02-14T13:07:45;98716.78;;;18.44;33.73
56992;BME280;42885;49.754;18.636;2024-02-14T13:10:35;98719.94;;;18.07;34.87
56992;BME280;42885;49.754;18.636;2024-02-14T13:13:24;98708.38;;;19.11;33.27
56992;BME280;42885;49.754;18.636;2024-02-14T13:16:14;98713.08;;;19.63;34.27
56992;BME280;42885;49.754;18.636;2024-02-14T13:19:07;98712.61;;;19.44;34.26
56992;BME280;42885;49.754;18.636;2024-02-14T13:21:55;98714.89;;;19.92;33.49
56992;BME280;42885;49.754;18.636;2024-02-14T13:24:45;98713.87;;;19.59;33.54
56992;BME280;42885;49.754;18.636;2024-02-14T13:27:34;98708.38;;;19.21;34.02
56992;BME280;42885;49.754;18.636;2024-02-14T13:30:24;98707.02;;;18.86;34.98
56992;BME280;42885;49.754;18.636;2024-02-14T13:33:16;98715.63;;;18.37;35.13
56992;BME280;42885;49.754;18.636;2024-02-14T13:36:05;98712.48;;;18.22;36.07
56992;BME280;42885;49.754;18.636;2024-02-14T13:38:55;98712.54;;;17.63;36.11
56992;BME280;42885;49.754;18.636;2024-02-14T13:41:44;98727.72;;;15.23;40.33
56992;BME280;42885;49.754;18.636;2024-02-14T13:44:32;98719.35;;;15.84;39.08
56992;BME280;42885;49.754;18.636;2024-02-14T13:47:21;98722.23;;;16.74;38.35
56992;BME280;42885;49.754;18.636;2024-02-14T13:50:11;98712.55;;;15.93;39.29
56992;BME280;42885;49.754;18.636;2024-02-14T13:53:01;98721.03;;;15.55;40.03
56992;BME280;42885;49.754;18.636;2024-02-14T13:55:51;98709.26;;;15.83;39.66
56992;BME280;42885;49.754;18.636;2024-02-14T13:58:40;98712.00;;;15.40;40.63
56992;BME280;42885;49.754;18.636;2024-02-14T14:01:29;98710.91;;;15.73;40.05
56992;BME280;42885;49.754;18.636;2024-02-14T14:04:18;98712.39;;;16.24;39.86
56992;BME280;42885;49.754;18.636;2024-02-14T14:07:09;98695.49;;;19.42;35.24
56992;BME280;42885;49.754;18.636;2024-02-14T14:09:58;98706.37;;;16.91;38.53
56992;BME280;42885;49.754;18.636;2024-02-14T14:12:47;98712.56;;;15.38;41.67
56992;BME280;42885;49.754;18.636;2024-02-14T14:15:37;98719.94;;;14.07;43.62
56992;BME280;42885;49.754;18.636;2024-02-14T14:18:26;98719.13;;;13.73;44.60
56992;BME280;42885;49.754;18.636;2024-02-14T14:21:15;98715.28;;;13.16;45.59
56992;BME280;42885;49.754;18.636;2024-02-14T14:24:04;98718.21;;;13.12;45.63
56992;BME280;42885;49.754;18.636;2024-02-14T14:26:53;98722.48;;;12.71;46.13
56992;BME280;42885;49.754;18.636;2024-02-14T14:29:43;98716.92;;;12.97;46.09
56992;BME280;42885;49.754;18.636;2024-02-14T14:32:34;98723.55;;;12.53;47.07
56992;BME280;42885;49.754;18.636;2024-02-14T14:35:25;98726.55;;;12.55;47.24
56992;BME280;42885;49.754;18.636;2024-02-14T14:38:15;98726.34;;;12.43;47.62
56992;BME280;42885;49.754;18.636;2024-02-14T14:41:03;98731.46;;;12.16;48.39
56992;BME280;42885;49.754;18.636;2024-02-14T14:43:52;98729.24;;;12.38;48.10
56992;BME280;42885;49.754;18.636;2024-02-14T14:46:42;98731.41;;;12.39;48.35
56992;BME280;42885;49.754;18.636;2024-02-14T14:49:31;98725.30;;;11.93;49.27
56992;BME280;42885;49.754;18.636;2024-02-14T14:52:20;98722.84;;;12.14;49.26